sensor_id;sensor_type;location;lat;lon;timestamp;pressure;altitude;pressure_sealevel;temperature;humidity
19457;BME280;9867;48.094;11.478;2022-09-03T00:00:27;94956.31;;;15.09;100.00
19457;BME280;9867;48.094;11.478;2022-09-03T00:03:00;94954.94;;;15.18;100.00
19457;BME280;9867;48.094;11.478;2022-09-03T00:05:36;94955.81;;;14.84;100.00
19457;BME280;9867;48.094;11.478;2022-09-03T00:08:09;94955.81;;;14.49;100.00
19457;BME280;9867;48.094;11.478;2022-09-03T00:10:44;94955.94;;;14.54;100.00
19457;BME280;9867;48.094;11.478;2022-09-03T00:13:19;94953.22;;;14.72;100.00
19457;BME280;9867;48.094;11.478;2022-09-03T00:15:50;94958.06;;;14.68;100.00
19457;BME280;9867;48.094;11.478;2022-09-03T00:18:23;94956.81;;;14.36;100.00
19457;BME280;9867;48.094;11.478;2022-09-03T00:20:55;94950.31;;;14.45;100.00
19457;BME280;9867;48.094;11.478;2022-09-03T00:23:27;94941.78;;;14.56;100.00
19457;BME280;9867;48.094;11.478;2022-09-03T00:26:00;94945.59;;;14.42;100.00
19457;BME280;9867;48.094;11.478;2022-09-03T00:28:37;94939.53;;;14.13;100.00
19457;BME280;9867;48.094;11.478;2022-09-03T00:31:12;94946.22;;;14.03;100.00
19457;BME280;9867;48.094;11.478;2022-09-03T00:33:45;94946.88;;;13.86;100.00
19457;BME280;9867;48.094;11.478;2022-09-03T00:36:18;94927.78;;;13.76;100.00
19457;BME280;9867;48.094;11.478;2022-09-03T00:38:47;94932.50;;;13.79;100.00
19457;BME280;9867;48.094;11.478;2022-09-03T00:41:24;94930.47;;;13.81;100.00
19457;BME280;9867;48.094;11.478;2022-09-03T00:44:12;94936.13;;;14.01;100.00
19457;BME280;9867;48.094;11.478;2022-09-03T00:46:47;94935.91;;;14.03;100.00
19457;BME280;9867;48.094;11.478;2022-09-03T00:49:26;94936.38;;;14.11;100.00
19457;BME280;9867;48.094;11.478;2022-09-03T00:52:03;94947.34;;;14.07;100.00
19457;BME280;9867;48.094;11.478;2022-09-03T00:54:43;94948.94;;;14.19;100.00
19457;BME280;9867;48.094;11.478;2022-09-03T00:57:23;94935.03;;;14.09;100.00
19457;BME280;9867;48.094;11.478;2022-09-03T01:00:03;94943.31;;;14.22;100.00
19457;BME280;9867;48.094;11.478;2022-09-03T01:02:45;94952.88;;;14.33;100.00
19457;BME280;9867;48.094;11.478;2022-09-03T01:05:23;94939.53;;;14.13;100.00
19457;BME280;9867;48.094;11.478;2022-09-03T01:08:03;94939.16;;;13.98;100.00
19457;BME280;9867;48.094;11.478;2022-09-03T01:10:43;94935.59;;;14.11;100.00
19457;BME280;9867;48.094;11.478;2022-09-03T01:13:16;94946.91;;;14.10;100.00
19457;BME280;9867;48.094;11.478;2022-09-03T01:15:56;94957.53;;;14.02;100.00
19457;BME280;9867;48.094;11.478;2022-09-03T01:18:33;94947.34;;;14.18;100.00
19457;BME280;9867;48.094;11.478;2022-09-03T01:21:22;94950.94;;;14.06;100.00
19457;BME280;9867;48.094;11.478;2022-09-03T01:24:25;94939.03;;;13.51;100.00
19457;BME280;9867;48.094;11.478;2022-09-03T01:27:10;94940.78;;;13.39;100.00
19457;BME280;9867;48.094;11.478;2022-09-03T01:29:48;94944.31;;;13.26;100.00
19457;BME280;9867;48.094;11.478;2022-09-03T01:32:24;94940.09;;;13.14;100.00
19457;BME280;9867;48.094;11.478;2022-09-03T01:35:00;94931.22;;;13.10;100.00
19457;BME280;9867;48.094;11.478;2022-09-03T01:37:36;94940.50;;;13.29;100.00
19457;BME280;9867;48.094;11.478;2022-09-03T01:40:14;94935.41;;;13.41;100.00
19457;BME280;9867;48.094;11.478;2022-09-03T01:42:55;94929.28;;;13.53;100.00
19457;BME280;9867;48.094;11.478;2022-09-03T01:45:39;94934.38;;;13.72;100.00
19457;BME280;9867;48.094;11.478;2022-09-03T01:48:39;94936.28;;;13.64;100.00
19457;BME280;9867;48.094;11.478;2022-09-03T01:51:15;94936.91;;;13.90;100.00
19457;BME280;9867;48.094;11.478;2022-09-03T01:53:58;94929.69;;;13.80;100.00
19457;BME280;9867;48.094;11.478;2022-09-03T01:56:39;94924.47;;;13.45;100.00
19457;BME280;9867;48.094;11.478;2022-09-03T01:59:17;94931.19;;;13.16;100.00
19457;BME280;9867;48.094;11.478;2022-09-03T02:01:52;94917.03;;;13.01;100.00
19457;BME280;9867;48.094;11.478;2022-09-03T02:04:24;94915.63;;;13.23;100.00
19457;BME280;9867;48.094;11.478;2022-09-03T02:06:55;94916.31;;;13.30;100.00
19457;BME280;9867;48.094;11.478;2022-09-03T02:09:24;94916.47;;;13.35;100.00
19457;BME280;9867;48.094;11.478;2022-09-03T02:12:03;94923.03;;;13.31;100.00
19457;BME280;9867;48.094;11.478;2022-09-03T02:14:34;94920.22;;;13.21;100.00
19457;BME280;9867;48.094;11.478;2022-09-03T02:17:05;94912.41;;;13.09;100.00
19457;BME280;9867;48.094;11.478;2022-09-03T02:19:35;94920.19;;;13.03;100.00
19457;BME280;9867;48.094;11.478;2022-09-03T02:22:04;94918.34;;;13.10;100.00
19457;BME280;9867;48.094;11.478;2022-09-03T02:24:32;94924.75;;;13.37;100.00
19457;BME280;9867;48.094;11.478;2022-09-03T02:27:00;94926.97;;;13.34;100.00
19457;BME280;9867;48.094;11.478;2022-09-03T02:29:28;94918.69;;;13.31;100.00
19457;BME280;9867;48.094;11.478;2022-09-03T02:31:57;94931.00;;;13.29;100.00
19457;BME280;9867;48.094;11.478;2022-09-03T02:34:26;94935.63;;;13.69;100.00
19457;BME280;9867;48.094;11.478;2022-09-03T02:36:54;94929.13;;;13.37;100.00
19457;BME280;9867;48.094;11.478;2022-09-03T02:39:22;94928.00;;;12.78;100.00
19457;BME280;9867;48.094;11.478;2022-09-03T02:41:53;94924.16;;;12.69;100.00
19457;BME280;9867;48.094;11.478;2022-09-03T02:44:25;94931.44;;;12.90;100.00
19457;BME280;9867;48.094;11.478;2022-09-03T02:46:58;94927.81;;;12.97;100.00
19457;BME280;9867;48.094;11.478;2022-09-03T02:49:28;94943.78;;;13.36;100.00
19457;BME280;9867;48.094;11.478;2022-09-03T02:51:57;94936.09;;;13.18;100.00
19457;BME280;9867;48.094;11.478;2022-09-03T02:54:26;94932.97;;;13.16;100.00
19457;BME280;9867;48.094;11.478;2022-09-03T02:56:54;94927.38;;;12.82;100.00
19457;BME280;9867;48.094;11.478;2022-09-03T02:59:22;94923.06;;;12.40;100.00
19457;BME280;9867;48.094;11.478;2022-09-03T03:01:50;94927.66;;;12.56;100.00
19457;BME280;9867;48.094;11.478;2022-09-03T03:04:18;94925.38;;;12.84;100.00
19457;BME280;9867;48.094;11.478;2022-09-03T03:06:47;94917.84;;;12.83;100.00
19457;BME280;9867;48.094;11.478;2022-09-03T03:09:16;94917.66;;;12.84;100.00
19457;BME280;9867;48.094;11.478;2022-09-03T03:11:44;94922.22;;;12.82;100.00
19457;BME280;9867;48.094;11.478;2022-09-03T03:14:12;94914.22;;;12.90;100.00
19457;BME280;9867;48.094;11.478;2022-09-03T03:16:40;94915.13;;;12.78;100.00
19457;BME280;9867;48.094;11.478;2022-09-03T03:19:08;94922.38;;;12.69;100.00
19457;BME280;9867;48.094;11.478;2022-09-03T03:21:36;94914.72;;;12.62;100.00
19457;BME280;9867;48.094;11.478;2022-09-03T03:24:06;94917.81;;;12.71;100.00
19457;BME280;9867;48.094;11.478;2022-09-03T03:26:34;94928.22;;;12.94;100.00
19457;BME280;9867;48.094;11.478;2022-09-03T03:29:02;94927.81;;;13.16;100.00
19457;BME280;9867;48.094;11.478;2022-09-03T03:31:31;94917.63;;;13.03;100.00
19457;BME280;9867;48.094;11.478;2022-09-03T03:34:01;94922.72;;;12.91;100.00
19457;BME280;9867;48.094;11.478;2022-09-03T03:36:31;94922.00;;;13.02;100.00
19457;BME280;9867;48.094;11.478;2022-09-03T03:39:00;94927.28;;;13.07;100.00
19457;BME280;9867;48.094;11.478;2022-09-03T03:41:31;94941.28;;;13.29;100.00
19457;BME280;9867;48.094;11.478;2022-09-03T03:44:01;94936.94;;;13.12;100.00
19457;BME280;9867;48.094;11.478;2022-09-03T03:46:31;94936.97;;;12.93;100.00
19457;BME280;9867;48.094;11.478;2022-09-03T03:49:00;94937.38;;;12.90;100.00
19457;BME280;9867;48.094;11.478;2022-09-03T03:51:28;94942.19;;;12.87;100.00
19457;BME280;9867;48.094;11.478;2022-09-03T03:53:58;94936.16;;;12.93;100.00
19457;BME280;9867;48.094;11.478;2022-09-03T03:56:32;94930.50;;;12.84;100.00
19457;BME280;9867;48.094;11.478;2022-09-03T03:59:01;94933.25;;;12.89;100.00
19457;BME280;9867;48.094;11.478;2022-09-03T04:01:29;94927.66;;;12.92;100.00
19457;BME280;9867;48.094;11.478;2022-09-03T04:03:58;94921.44;;;12.63;100.00
19457;BME280;9867;48.094;11.478;2022-09-03T04:06:27;94919.84;;;12.44;100.00
19457;BME280;9867;48.094;11.478;2022-09-03T04:08:55;94917.44;;;12.49;100.00
19457;BME280;9867;48.094;11.478;2022-09-03T04:11:24;94915.94;;;12.60;100.00
19457;BME280;9867;48.094;11.478;2022-09-03T04:13:54;94923.38;;;12.68;100.00
19457;BME280;9867;48.094;11.478;2022-09-03T04:16:23;94923.06;;;12.76;100.00
19457;BME280;9867;48.094;11.478;2022-09-03T04:18:52;94925.44;;;12.96;100.00
19457;BME280;9867;48.094;11.478;2022-09-03T04:21:22;94929.75;;;13.20;100.00
19457;BME280;9867;48.094;11.478;2022-09-03T04:23:53;94929.00;;;13.31;100.00
19457;BME280;9867;48.094;11.478;2022-09-03T04:26:24;94931.31;;;13.21;100.00
19457;BME280;9867;48.094;11.478;2022-09-03T04:28:53;94932.78;;;13.29;100.00
19457;BME280;9867;48.094;11.478;2022-09-03T04:31:21;94936.00;;;13.43;100.00
19457;BME280;9867;48.094;11.478;2022-09-03T04:33:49;94935.56;;;13.46;100.00
19457;BME280;9867;48.094;11.478;2022-09-03T04:36:18;94939.13;;;13.45;100.00
19457;BME280;9867;48.094;11.478;2022-09-03T04:38:48;94941.44;;;13.35;100.00
19457;BME280;9867;48.094;11.478;2022-09-03T04:41:19;94945.50;;;13.42;100.00
19457;BME280;9867;48.094;11.478;2022-09-03T04:43:49;94941.94;;;13.25;100.00
19457;BME280;9867;48.094;11.478;2022-09-03T04:46:20;94939.59;;;13.05;100.00
19457;BME280;9867;48.094;11.478;2022-09-03T04:48:49;94945.41;;;13.19;100.00
19457;BME280;9867;48.094;11.478;2022-09-03T04:51:19;94944.88;;;13.28;100.00
19457;BME280;9867;48.094;11.478;2022-09-03T04:53:53;94944.53;;;13.25;100.00
19457;BME280;9867;48.094;11.478;2022-09-03T04:56:23;94957.28;;;13.20;100.00
19457;BME280;9867;48.094;11.478;2022-09-03T04:58:54;94964.69;;;13.10;100.00
19457;BME280;9867;48.094;11.478;2022-09-03T05:01:27;94967.13;;;12.86;100.00
19457;BME280;9867;48.094;11.478;2022-09-03T05:03:55;94964.91;;;12.72;100.00
19457;BME280;9867;48.094;11.478;2022-09-03T05:06:24;94964.72;;;12.73;100.00
19457;BME280;9867;48.094;11.478;2022-09-03T05:08:53;94966.56;;;12.66;100.00
19457;BME280;9867;48.094;11.478;2022-09-03T05:11:22;94971.66;;;12.91;100.00
19457;BME280;9867;48.094;11.478;2022-09-03T05:13:51;94978.53;;;12.97;100.00
19457;BME280;9867;48.094;11.478;2022-09-03T05:16:20;94989.78;;;12.78;100.00
19457;BME280;9867;48.094;11.478;2022-09-03T05:18:52;94993.50;;;12.63;100.00
19457;BME280;9867;48.094;11.478;2022-09-03T05:21:21;94987.56;;;12.81;100.00
19457;BME280;9867;48.094;11.478;2022-09-03T05:23:49;94986.06;;;13.17;100.00
19457;BME280;9867;48.094;11.478;2022-09-03T05:26:21;95013.06;;;13.62;100.00
19457;BME280;9867;48.094;11.478;2022-09-03T05:28:52;95025.88;;;13.51;100.00
19457;BME280;9867;48.094;11.478;2022-09-03T05:31:23;95017.63;;;13.60;100.00
19457;BME280;9867;48.094;11.478;2022-09-03T05:33:54;95005.94;;;13.46;100.00
19457;BME280;9867;48.094;11.478;2022-09-03T05:36:25;94999.63;;;13.72;100.00
19457;BME280;9867;48.094;11.478;2022-09-03T05:38:54;95014.34;;;13.83;100.00
19457;BME280;9867;48.094;11.478;2022-09-03T05:41:25;95001.63;;;14.00;100.00
19457;BME280;9867;48.094;11.478;2022-09-03T05:43:54;95006.34;;;14.03;100.00
19457;BME280;9867;48.094;11.478;2022-09-03T05:46:26;95003.91;;;14.20;100.00
19457;BME280;9867;48.094;11.478;2022-09-03T05:48:59;95015.72;;;14.39;100.00
19457;BME280;9867;48.094;11.478;2022-09-03T05:51:28;95013.25;;;14.32;100.00
19457;BME280;9867;48.094;11.478;2022-09-03T05:53:56;95021.16;;;14.08;100.00
19457;BME280;9867;48.094;11.478;2022-09-03T05:56:27;95008.69;;;14.05;100.00
19457;BME280;9867;48.094;11.478;2022-09-03T05:58:57;95018.06;;;14.29;100.00
19457;BME280;9867;48.094;11.478;2022-09-03T06:01:29;95015.06;;;14.44;100.00
19457;BME280;9867;48.094;11.478;2022-09-03T06:04:00;95022.84;;;14.79;100.00
19457;BME280;9867;48.094;11.478;2022-09-03T06:06:33;95039.56;;;14.76;100.00
19457;BME280;9867;48.094;11.478;2022-09-03T06:09:04;95034.94;;;14.66;100.00
19457;BME280;9867;48.094;11.478;2022-09-03T06:11:33;95032.59;;;14.88;100.00
19457;BME280;9867;48.094;11.478;2022-09-03T06:14:04;95022.72;;;14.97;100.00
19457;BME280;9867;48.094;11.478;2022-09-03T06:16:35;95027.41;;;15.12;100.00
19457;BME280;9867;48.094;11.478;2022-09-03T06:19:06;95036.09;;;14.71;100.00
19457;BME280;9867;48.094;11.478;2022-09-03T06:21:36;95032.28;;;14.85;100.00
19457;BME280;9867;48.094;11.478;2022-09-03T06:24:08;95027.09;;;14.96;100.00
19457;BME280;9867;48.094;11.478;2022-09-03T06:26:38;95036.88;;;14.83;100.00
19457;BME280;9867;48.094;11.478;2022-09-03T06:29:08;95033.38;;;15.12;100.00
19457;BME280;9867;48.094;11.478;2022-09-03T06:31:37;95046.03;;;15.37;100.00
19457;BME280;9867;48.094;11.478;2022-09-03T06:34:07;95044.41;;;14.96;100.00
19457;BME280;9867;48.094;11.478;2022-09-03T06:36:35;95050.13;;;15.10;100.00
19457;BME280;9867;48.094;11.478;2022-09-03T06:39:03;95056.75;;;15.06;100.00
19457;BME280;9867;48.094;11.478;2022-09-03T06:41:32;95066.88;;;15.07;100.00
19457;BME280;9867;48.094;11.478;2022-09-03T06:44:02;95062.38;;;15.02;100.00
19457;BME280;9867;48.094;11.478;2022-09-03T06:46:32;95072.03;;;15.07;100.00
19457;BME280;9867;48.094;11.478;2022-09-03T06:49:00;95059.34;;;14.94;100.00
19457;BME280;9867;48.094;11.478;2022-09-03T06:51:31;95063.47;;;14.72;100.00
19457;BME280;9867;48.094;11.478;2022-09-03T06:54:02;95068.53;;;14.78;100.00
19457;BME280;9867;48.094;11.478;2022-09-03T06:56:32;95058.41;;;15.12;100.00
19457;BME280;9867;48.094;11.478;2022-09-03T06:59:07;95060.69;;;15.08;100.00
19457;BME280;9867;48.094;11.478;2022-09-03T07:01:36;95055.31;;;14.86;100.00
19457;BME280;9867;48.094;11.478;2022-09-03T07:04:10;95066.75;;;14.79;100.00
19457;BME280;9867;48.094;11.478;2022-09-03T07:06:40;95053.06;;;14.78;100.00
19457;BME280;9867;48.094;11.478;2022-09-03T07:09:11;95061.47;;;14.85;100.00
19457;BME280;9867;48.094;11.478;2022-09-03T07:11:40;95062.44;;;14.49;100.00
19457;BME280;9867;48.094;11.478;2022-09-03T07:14:14;95068.09;;;14.16;100.00
19457;BME280;9867;48.094;11.478;2022-09-03T07:16:43;95063.94;;;14.57;100.00
19457;BME280;9867;48.094;11.478;2022-09-03T07:19:12;95061.03;;;14.77;100.00
19457;BME280;9867;48.094;11.478;2022-09-03T07:21:42;95062.50;;;14.84;100.00
19457;BME280;9867;48.094;11.478;2022-09-03T07:24:17;95065.31;;;14.83;100.00
19457;BME280;9867;48.094;11.478;2022-09-03T07:26:45;95054.19;;;14.82;100.00
19457;BME280;9867;48.094;11.478;2022-09-03T07:29:14;95052.25;;;15.01;100.00
19457;BME280;9867;48.094;11.478;2022-09-03T07:31:47;95054.50;;;14.97;100.00
19457;BME280;9867;48.094;11.478;2022-09-03T07:34:17;95060.47;;;14.98;100.00
19457;BME280;9867;48.094;11.478;2022-09-03T07:36:49;95053.38;;;14.93;100.00
19457;BME280;9867;48.094;11.478;2022-09-03T07:39:18;95043.97;;;14.87;100.00
19457;BME280;9867;48.094;11.478;2022-09-03T07:41:46;95046.31;;;15.00;100.00
19457;BME280;9867;48.094;11.478;2022-09-03T07:44:16;95040.69;;;15.04;100.00
19457;BME280;9867;48.094;11.478;2022-09-03T07:46:46;95031.59;;;15.01;100.00
19457;BME280;9867;48.094;11.478;2022-09-03T07:49:17;95032.03;;;15.10;100.00
19457;BME280;9867;48.094;11.478;2022-09-03T07:51:45;95037.50;;;15.25;100.00
19457;BME280;9867;48.094;11.478;2022-09-03T07:54:17;95039.84;;;15.38;100.00
19457;BME280;9867;48.094;11.478;2022-09-03T07:56:47;95040.16;;;15.53;100.00
19457;BME280;9867;48.094;11.478;2022-09-03T07:59:15;95036.91;;;15.58;100.00
19457;BME280;9867;48.094;11.478;2022-09-03T08:01:42;95043.72;;;15.76;100.00
19457;BME280;9867;48.094;11.478;2022-09-03T08:04:10;95038.25;;;15.89;100.00
19457;BME280;9867;48.094;11.478;2022-09-03T08:06:39;95054.91;;;16.10;100.00
19457;BME280;9867;48.094;11.478;2022-09-03T08:09:09;95044.56;;;16.10;100.00
19457;BME280;9867;48.094;11.478;2022-09-03T08:11:41;95055.06;;;16.48;100.00
19457;BME280;9867;48.094;11.478;2022-09-03T08:14:11;95062.78;;;16.77;100.00
19457;BME280;9867;48.094;11.478;2022-09-03T08:16:40;95060.97;;;16.94;100.00
19457;BME280;9867;48.094;11.478;2022-09-03T08:19:09;95060.84;;;17.05;100.00
19457;BME280;9867;48.094;11.478;2022-09-03T08:21:37;95061.97;;;17.31;100.00
19457;BME280;9867;48.094;11.478;2022-09-03T08:24:07;95063.56;;;17.54;100.00
19457;BME280;9867;48.094;11.478;2022-09-03T08:26:38;95070.31;;;17.55;100.00
19457;BME280;9867;48.094;11.478;2022-09-03T08:29:08;95056.94;;;17.63;100.00
19457;BME280;9867;48.094;11.478;2022-09-03T08:31:37;95061.06;;;17.81;100.00
19457;BME280;9867;48.094;11.478;2022-09-03T08:34:06;95073.34;;;18.13;100.00
19457;BME280;9867;48.094;11.478;2022-09-03T08:36:37;95070.31;;;18.53;100.00
19457;BME280;9867;48.094;11.478;2022-09-03T08:39:08;95073.25;;;18.93;100.00
19457;BME280;9867;48.094;11.478;2022-09-03T08:41:56;95067.47;;;19.23;100.00
19457;BME280;9867;48.094;11.478;2022-09-03T08:44:36;95064.84;;;19.23;100.00
19457;BME280;9867;48.094;11.478;2022-09-03T08:47:11;95049.97;;;19.14;100.00
19457;BME280;9867;48.094;11.478;2022-09-03T08:49:44;95062.97;;;19.08;100.00
19457;BME280;9867;48.094;11.478;2022-09-03T08:52:25;95041.00;;;18.89;100.00
19457;BME280;9867;48.094;11.478;2022-09-03T08:55:06;95066.78;;;19.43;100.00
19457;BME280;9867;48.094;11.478;2022-09-03T08:57:43;95070.19;;;19.49;100.00
19457;BME280;9867;48.094;11.478;2022-09-03T09:00:15;95068.81;;;19.83;100.00
19457;BME280;9867;48.094;11.478;2022-09-03T09:02:59;95078.47;;;19.93;100.00
19457;BME280;9867;48.094;11.478;2022-09-03T09:05:40;95083.81;;;19.66;100.00
19457;BME280;9867;48.094;11.478;2022-09-03T09:08:19;95085.38;;;19.62;100.00
19457;BME280;9867;48.094;11.478;2022-09-03T09:11:02;95073.16;;;19.67;100.00
19457;BME280;9867;48.094;11.478;2022-09-03T09:13:41;95070.94;;;20.01;100.00
19457;BME280;9867;48.094;11.478;2022-09-03T09:16:18;95060.09;;;20.40;100.00
19457;BME280;9867;48.094;11.478;2022-09-03T09:18:59;95067.91;;;21.01;100.00
19457;BME280;9867;48.094;11.478;2022-09-03T09:21:33;95071.56;;;20.69;100.00
19457;BME280;9867;48.094;11.478;2022-09-03T09:24:08;95072.09;;;20.71;100.00
19457;BME280;9867;48.094;11.478;2022-09-03T09:26:40;95064.28;;;20.76;100.00
19457;BME280;9867;48.094;11.478;2022-09-03T09:29:08;95066.34;;;20.90;100.00
19457;BME280;9867;48.094;11.478;2022-09-03T09:31:40;95053.31;;;20.90;100.00
19457;BME280;9867;48.094;11.478;2022-09-03T09:34:10;95070.78;;;20.84;100.00
19457;BME280;9867;48.094;11.478;2022-09-03T09:36:43;95067.63;;;21.07;100.00
19457;BME280;9867;48.094;11.478;2022-09-03T09:39:13;95063.41;;;21.42;100.00
19457;BME280;9867;48.094;11.478;2022-09-03T09:41:56;95065.81;;;21.93;100.00
19457;BME280;9867;48.094;11.478;2022-09-03T09:44:25;95075.09;;;21.65;100.00
19457;BME280;9867;48.094;11.478;2022-09-03T09:47:07;95068.81;;;21.66;100.00
19457;BME280;9867;48.094;11.478;2022-09-03T09:49:51;95057.59;;;21.55;100.00
19457;BME280;9867;48.094;11.478;2022-09-03T09:52:22;95054.53;;;21.48;100.00
19457;BME280;9867;48.094;11.478;2022-09-03T09:54:53;95053.16;;;21.66;100.00
19457;BME280;9867;48.094;11.478;2022-09-03T09:57:33;95056.47;;;21.76;100.00
19457;BME280;9867;48.094;11.478;2022-09-03T10:00:04;95056.28;;;21.68;100.00
19457;BME280;9867;48.094;11.478;2022-09-03T10:02:46;95061.00;;;21.51;100.00
19457;BME280;9867;48.094;11.478;2022-09-03T10:05:19;95059.69;;;21.53;100.00
19457;BME280;9867;48.094;11.478;2022-09-03T10:07:55;95059.75;;;21.48;100.00
19457;BME280;9867;48.094;11.478;2022-09-03T10:10:25;95058.72;;;21.29;100.00
19457;BME280;9867;48.094;11.478;2022-09-03T10:12:57;95064.22;;;21.32;100.00
19457;BME280;9867;48.094;11.478;2022-09-03T10:15:40;95056.19;;;21.88;100.00
19457;BME280;9867;48.094;11.478;2022-09-03T10:18:16;95061.59;;;21.97;100.00
19457;BME280;9867;48.094;11.478;2022-09-03T10:20:57;95058.09;;;22.22;100.00
19457;BME280;9867;48.094;11.478;2022-09-03T10:23:34;95066.78;;;22.17;100.00
19457;BME280;9867;48.094;11.478;2022-09-03T10:26:09;95060.97;;;22.59;100.00
19457;BME280;9867;48.094;11.478;2022-09-03T10:28:38;95061.91;;;22.78;100.00
19457;BME280;9867;48.094;11.478;2022-09-03T10:31:31;95061.69;;;23.04;100.00
19457;BME280;9867;48.094;11.478;2022-09-03T10:34:08;95066.50;;;23.44;100.00
19457;BME280;9867;48.094;11.478;2022-09-03T10:36:47;95063.75;;;24.21;100.00
19457;BME280;9867;48.094;11.478;2022-09-03T10:39:22;95066.44;;;24.16;100.00
19457;BME280;9867;48.094;11.478;2022-09-03T10:42:04;95062.69;;;24.03;100.00
19457;BME280;9867;48.094;11.478;2022-09-03T10:44:49;95064.59;;;24.17;100.00
19457;BME280;9867;48.094;11.478;2022-09-03T10:47:31;95052.38;;;24.63;100.00
19457;BME280;9867;48.094;11.478;2022-09-03T10:50:09;95043.94;;;25.72;100.00
19457;BME280;9867;48.094;11.478;2022-09-03T10:52:55;95041.69;;;25.66;100.00
19457;BME280;9867;48.094;11.478;2022-09-03T10:55:33;95044.19;;;24.51;100.00
19457;BME280;9867;48.094;11.478;2022-09-03T10:58:12;95047.81;;;24.36;100.00
19457;BME280;9867;48.094;11.478;2022-09-03T11:00:50;95044.41;;;23.98;100.00
19457;BME280;9867;48.094;11.478;2022-09-03T11:03:44;95047.00;;;23.79;100.00
19457;BME280;9867;48.094;11.478;2022-09-03T11:06:19;95044.47;;;23.93;100.00
19457;BME280;9867;48.094;11.478;2022-09-03T11:08:54;95052.75;;;23.34;100.00
19457;BME280;9867;48.094;11.478;2022-09-03T11:11:34;95046.06;;;23.70;100.00
19457;BME280;9867;48.094;11.478;2022-09-03T11:14:07;95036.00;;;23.59;100.00
19457;BME280;9867;48.094;11.478;2022-09-03T11:16:43;95028.22;;;23.72;100.00
19457;BME280;9867;48.094;11.478;2022-09-03T11:19:13;95015.91;;;23.92;100.00
19457;BME280;9867;48.094;11.478;2022-09-03T11:21:45;95016.06;;;24.00;100.00
19457;BME280;9867;48.094;11.478;2022-09-03T11:24:19;95024.88;;;24.28;100.00
19457;BME280;9867;48.094;11.478;2022-09-03T11:26:56;95022.94;;;23.96;100.00
19457;BME280;9867;48.094;11.478;2022-09-03T11:29:32;95021.03;;;23.83;100.00
19457;BME280;9867;48.094;11.478;2022-09-03T11:32:04;95024.53;;;23.55;100.00
19457;BME280;9867;48.094;11.478;2022-09-03T11:34:44;95027.16;;;24.11;100.00
19457;BME280;9867;48.094;11.478;2022-09-03T11:37:19;95033.13;;;24.17;100.00
19457;BME280;9867;48.094;11.478;2022-09-03T11:39:55;95027.03;;;24.40;100.00
19457;BME280;9867;48.094;11.478;2022-09-03T11:42:29;95028.50;;;24.65;100.00
19457;BME280;9867;48.094;11.478;2022-09-03T11:45:12;95021.75;;;24.59;100.00
19457;BME280;9867;48.094;11.478;2022-09-03T11:47:41;95020.91;;;24.31;100.00
19457;BME280;9867;48.094;11.478;2022-09-03T11:50:19;95009.19;;;24.23;100.00
19457;BME280;9867;48.094;11.478;2022-09-03T11:52:50;95005.97;;;24.45;100.00
19457;BME280;9867;48.094;11.478;2022-09-03T11:55:26;95000.19;;;24.62;100.00
19457;BME280;9867;48.094;11.478;2022-09-03T11:58:11;94996.44;;;24.81;100.00
19457;BME280;9867;48.094;11.478;2022-09-03T12:00:40;95003.50;;;24.35;100.00
19457;BME280;9867;48.094;11.478;2022-09-03T12:03:14;94997.66;;;24.57;100.00
19457;BME280;9867;48.094;11.478;2022-09-03T12:05:48;95009.09;;;24.47;100.00
19457;BME280;9867;48.094;11.478;2022-09-03T12:08:47;94995.72;;;24.11;100.00
19457;BME280;9867;48.094;11.478;2022-09-03T12:11:33;94996.78;;;23.72;100.00
19457;BME280;9867;48.094;11.478;2022-09-03T12:14:12;94994.59;;;23.98;100.00
19457;BME280;9867;48.094;11.478;2022-09-03T12:17:06;94993.97;;;24.58;100.00
19457;BME280;9867;48.094;11.478;2022-09-03T12:19:39;94998.13;;;24.91;100.00
19457;BME280;9867;48.094;11.478;2022-09-03T12:22:12;95000.59;;;25.15;100.00
19457;BME280;9867;48.094;11.478;2022-09-03T12:24:42;94996.44;;;25.14;100.00
19457;BME280;9867;48.094;11.478;2022-09-03T12:27:14;95000.81;;;24.72;100.00
19457;BME280;9867;48.094;11.478;2022-09-03T12:29:51;94981.19;;;24.70;100.00
19457;BME280;9867;48.094;11.478;2022-09-03T12:32:27;94983.59;;;24.99;100.00
19457;BME280;9867;48.094;11.478;2022-09-03T12:35:08;94989.59;;;25.54;100.00
19457;BME280;9867;48.094;11.478;2022-09-03T12:37:36;94984.75;;;25.06;100.00
19457;BME280;9867;48.094;11.478;2022-09-03T12:40:28;94981.25;;;25.38;100.00
19457;BME280;9867;48.094;11.478;2022-09-03T12:43:11;94983.41;;;26.22;100.00
19457;BME280;9867;48.094;11.478;2022-09-03T12:45:59;94981.81;;;25.99;100.00
19457;BME280;9867;48.094;11.478;2022-09-03T12:48:36;94982.78;;;26.03;100.00
19457;BME280;9867;48.094;11.478;2022-09-03T12:51:06;94978.09;;;25.77;100.00
19457;BME280;9867;48.094;11.478;2022-09-03T12:53:54;94976.09;;;25.74;100.00
19457;BME280;9867;48.094;11.478;2022-09-03T12:56:26;94970.63;;;25.71;100.00
19457;BME280;9867;48.094;11.478;2022-09-03T12:59:04;94971.13;;;25.73;94.39
19457;BME280;9867;48.094;11.478;2022-09-03T13:01:39;94953.50;;;25.73;96.00
19457;BME280;9867;48.094;11.478;2022-09-03T13:04:13;94953.13;;;25.66;100.00
19457;BME280;9867;48.094;11.478;2022-09-03T13:06:49;94948.97;;;25.24;94.49
19457;BME280;9867;48.094;11.478;2022-09-03T13:09:21;94955.28;;;25.09;98.67
19457;BME280;9867;48.094;11.478;2022-09-03T13:11:51;94956.72;;;25.70;93.89
19457;BME280;9867;48.094;11.478;2022-09-03T13:14:21;94956.34;;;25.49;94.11
19457;BME280;9867;48.094;11.478;2022-09-03T13:19:55;94961.28;;;26.23;87.62
19457;BME280;9867;48.094;11.478;2022-09-03T13:22:32;94970.31;;;27.06;96.75
19457;BME280;9867;48.094;11.478;2022-09-03T13:25:15;94972.13;;;27.37;84.75